Time;durP1;ratioP1;P1;durP2;ratioP2;P2;SDS_P1;SDS_P2;PMS_P1;PMS_P2;Temp;Humidity;BMP_temperature;BMP_pressure;BME280_temperature;BME280_humidity;BME280_pressure;Samples;Min_cycle;Max_cycle;Signal;HPM_P1;HPM_P2
2022/11/26 00:00:43;;;;;;;18.67;4.80;;;6.10;99.90;;;;;;5083861;28;20066;-78
2022/11/26 00:03:13;;;;;;;18.15;4.65;;;6.60;99.90;;;;;;5079927;28;20665;-79
2022/11/26 00:05:41;;;;;;;20.65;5.00;;;6.00;99.90;;;;;;5079214;28;20392;-79
2022/11/26 00:08:34;;;;;;;20.15;4.63;;;6.10;99.90;;;;;;5074538;28;20039;-78
2022/11/26 00:11:15;;;;;;;18.02;3.90;;;6.10;99.90;;;;;;5075281;28;20472;-78
2022/11/26 00:13:41;;;;;;;19.90;4.40;;;6.00;99.90;;;;;;5063543;28;20048;-79
2022/11/26 00:16:12;;;;;;;19.27;4.53;;;6.00;99.90;;;;;;5072757;28;20052;-78
2022/11/26 00:18:38;;;;;;;22.77;4.80;;;6.00;99.90;;;;;;5080969;28;20497;-78
2022/11/26 00:21:08;;;;;;;20.15;4.95;;;6.00;99.90;;;;;;5065774;28;20036;-79
2022/11/26 00:23:34;;;;;;;16.15;4.57;;;6.00;99.90;;;;;;5068114;28;20055;-79
2022/11/26 00:26:02;;;;;;;18.17;4.63;;;6.00;99.90;;;;;;5075327;28;20025;-79
2022/11/26 00:28:33;;;;;;;20.75;4.72;;;6.00;99.90;;;;;;5059335;28;20043;-78
2022/11/26 00:31:05;;;;;;;24.95;5.38;;;6.00;99.90;;;;;;5091734;28;20619;-78
2022/11/26 00:33:31;;;;;;;20.55;5.20;;;6.00;99.90;;;;;;5092924;28;20036;-79
2022/11/26 00:36:17;;;;;;;23.70;5.47;;;6.00;99.90;;;;;;5090695;28;20094;-78
2022/11/26 00:38:46;;;;;;;22.48;5.38;;;6.00;99.90;;;;;;5097783;28;20044;-78
2022/11/26 00:41:16;;;;;;;21.83;5.22;;;6.00;99.90;;;;;;5071226;28;20127;-77
2022/11/26 00:43:43;;;;;;;20.15;5.47;;;;;;;;;;5099350;28;20044;-78
2022/11/26 00:46:17;;;;;;;19.13;5.13;;;6.00;99.90;;;;;;5081015;28;20051;-79
2022/11/26 00:48:43;;;;;;;19.83;5.60;;;7.00;99.90;;;;;;5092664;28;20075;-78
2022/11/26 00:51:19;;;;;;;18.15;5.20;;;6.00;99.90;;;;;;5076908;28;20044;-77
2022/11/26 00:53:45;;;;;;;17.60;5.05;;;6.70;99.90;;;;;;5078457;28;20036;-79
2022/11/26 00:56:17;;;;;;;22.65;5.65;;;6.40;99.90;;;;;;5082951;28;20061;-79
2022/11/26 00:58:44;;;;;;;21.15;6.10;;;7.70;99.90;;;;;;5086223;28;20496;-78
2022/11/26 01:01:12;;;;;;;21.75;5.10;;;6.50;99.90;;;;;;5104205;28;20039;-79
2022/11/26 01:03:41;;;;;;;22.40;5.85;;;7.10;99.90;;;;;;5093098;28;20051;-78
2022/11/26 01:06:35;;;;;;;18.95;5.07;;;5.90;99.90;;;;;;5106491;28;20043;-78
2022/11/26 01:09:03;;;;;;;18.45;5.30;;;5.90;99.90;;;;;;5098305;28;20333;-78
2022/11/26 01:11:29;;;;;;;22.25;6.03;;;6.30;99.90;;;;;;5082180;28;20077;-79
2022/11/26 01:13:55;;;;;;;22.25;5.40;;;6.40;99.90;;;;;;5083067;28;20036;-78
2022/11/26 01:16:27;;;;;;;22.55;6.07;;;5.90;99.90;;;;;;5093576;28;20059;-79
2022/11/26 01:18:55;;;;;;;19.45;5.32;;;6.20;99.90;;;;;;5100976;28;20031;-79
2022/11/26 01:21:22;;;;;;;22.13;6.07;;;5.80;99.90;;;;;;5083536;28;20524;-78
2022/11/26 01:23:48;;;;;;;19.60;5.88;;;5.80;99.90;;;;;;5080733;28;20535;-79
2022/11/26 01:26:20;;;;;;;18.50;5.90;;;5.80;99.90;;;;;;5081342;28;20032;-78
2022/11/26 01:28:46;;;;;;;23.00;5.80;;;5.80;99.90;;;;;;5096948;28;20044;-79
2022/11/26 01:31:17;;;;;;;19.55;6.07;;;7.30;99.90;;;;;;5104856;28;20036;-79
2022/11/26 01:33:44;;;;;;;21.33;6.40;;;6.70;99.90;;;;;;5100113;28;20031;-79
2022/11/26 01:36:30;;;;;;;22.15;6.20;;;5.90;99.90;;;;;;5095129;28;20031;-79
2022/11/26 01:39:02;;;;;;;22.48;6.53;;;5.70;99.90;;;;;;5104235;28;20279;-79
2022/11/26 01:41:45;;;;;;;19.15;6.03;;;5.70;99.90;;;;;;5096203;28;20446;-77
2022/11/26 01:44:19;;;;;;;22.67;6.63;;;5.70;99.90;;;;;;5102464;28;20038;-78
2022/11/26 01:46:46;;;;;;;27.00;6.90;;;5.70;99.90;;;;;;5095656;28;20493;-78
2022/11/26 01:49:18;;;;;;;22.17;6.50;;;5.40;99.90;;;;;;5092189;28;20123;-79
2022/11/26 01:51:46;;;;;;;20.10;6.45;;;5.80;99.90;;;;;;5089973;28;20059;-79
2022/11/26 01:54:12;;;;;;;21.45;6.35;;;5.70;99.90;;;;;;5072420;28;20046;-78
2022/11/26 01:56:42;;;;;;;21.50;6.65;;;5.70;99.90;;;;;;5081606;28;20039;-78
2022/11/26 01:59:33;;;;;;;21.60;6.38;;;5.70;99.90;;;;;;5098679;28;20032;-79
2022/11/26 02:01:59;;;;;;;21.58;6.68;;;5.60;99.90;;;;;;5085778;28;20078;-78
2022/11/26 02:04:42;;;;;;;22.33;6.85;;;5.60;99.90;;;;;;5095249;28;20106;-78
2022/11/26 02:07:08;;;;;;;21.83;7.00;;;5.60;99.90;;;;;;5094376;28;20036;-78
2022/11/26 02:09:36;;;;;;;21.23;6.78;;;5.60;99.90;;;;;;5071480;28;20420;-78
2022/11/26 02:12:02;;;;;;;23.08;6.68;;;5.60;99.90;;;;;;5096323;28;20089;-79
2022/11/26 02:14:34;;;;;;;19.83;6.60;;;5.50;99.90;;;;;;5063501;28;20074;-79
2022/11/26 02:17:12;;;;;;;20.02;7.07;;;5.70;99.90;;;;;;5093579;28;20106;-79
2022/11/26 02:20:02;;;;;;;18.77;6.63;;;5.50;99.90;;;;;;5099059;28;20048;-79
2022/11/26 02:22:49;;;;;;;20.50;6.50;;;5.50;99.90;;;;;;5076922;28;20046;-79
2022/11/26 02:25:40;;;;;;;20.23;6.88;;;5.50;99.90;;;;;;5081503;28;20040;-78
2022/11/26 02:28:14;;;;;;;24.45;7.45;;;5.50;99.90;;;;;;5097331;28;20040;-78
2022/11/26 02:31:19;;;;;;;21.08;7.15;;;5.50;99.90;;;;;;5096663;28;20044;-78
2022/11/26 02:33:51;;;;;;;27.60;7.60;;;5.50;99.90;;;;;;5082050;28;20165;-79
2022/11/26 02:36:46;;;;;;;25.20;7.43;;;6.50;99.90;;;;;;5090678;28;20067;-78
2022/11/26 02:39:15;;;;;;;22.02;7.53;;;5.60;99.90;;;;;;5078693;28;20066;-79
2022/11/26 02:41:52;;;;;;;25.23;7.30;;;5.60;99.90;;;;;;5094633;28;20230;-79
2022/11/26 02:44:22;;;;;;;20.85;6.90;;;5.70;99.90;;;;;;5104562;28;20031;-78
2022/11/26 02:46:53;;;;;;;25.38;7.18;;;6.00;99.90;;;;;;5107024;28;20039;-79
2022/11/26 02:49:21;;;;;;;24.10;7.40;;;7.10;99.90;;;;;;5098503;27;20400;-77
2022/11/26 02:51:52;;;;;;;20.35;7.18;;;6.80;99.90;;;;;;5073326;28;20566;-78
2022/11/26 02:54:20;;;;;;;22.02;7.18;;;5.40;99.90;;;;;;5090019;28;20060;-79
2022/11/26 02:56:48;;;;;;;26.20;7.13;;;5.40;99.90;;;;;;5095577;28;20141;-79
2022/11/26 02:59:14;;;;;;;27.73;7.57;;;6.10;99.90;;;;;;5090430;28;20197;-77
2022/11/26 03:01:49;;;;;;;22.33;7.18;;;5.40;99.90;;;;;;5091337;28;20036;-78
2022/11/26 03:04:25;;;;;;;22.33;7.20;;;5.40;99.90;;;;;;5092141;28;20509;-79
2022/11/26 03:06:53;;;;;;;21.80;6.72;;;5.40;99.90;;;;;;5100544;28;20485;-78
2022/11/26 03:09:21;;;;;;;22.95;7.53;;;6.40;99.90;;;;;;5093463;28;20032;-79
2022/11/26 03:11:47;;;;;;;22.88;7.40;;;5.50;99.90;;;;;;5094195;28;20118;-78
2022/11/26 03:14:13;;;;;;;20.95;7.85;;;5.40;99.90;;;;;;5097638;28;20115;-78
2022/11/26 03:16:39;;;;;;;25.92;7.38;;;5.40;99.90;;;;;;5082050;28;20540;-78
2022/11/26 03:19:04;;;;;;;22.88;7.47;;;6.90;99.90;;;;;;5072047;28;20040;-79
2022/11/26 03:21:32;;;;;;;22.45;7.53;;;5.30;99.90;;;;;;5090823;28;20125;-78
2022/11/26 03:23:57;;;;;;;23.92;7.05;;;5.30;99.90;;;;;;5094193;28;20120;-78
2022/11/26 03:26:23;;;;;;;19.75;7.03;;;5.70;99.90;;;;;;5090629;28;20036;-78
2022/11/26 03:28:52;;;;;;;20.20;7.43;;;6.90;99.90;;;;;;5089510;28;20051;-79
2022/11/26 03:31:18;;;;;;;21.90;7.22;;;6.80;99.90;;;;;;5071423;28;20032;-79
2022/11/26 03:33:43;;;;;;;23.02;8.13;;;5.10;99.90;;;;;;5076186;28;20046;-78
2022/11/26 03:36:09;;;;;;;19.33;7.05;;;5.30;99.90;;;;;;5083593;28;20127;-78
2022/11/26 03:38:35;;;;;;;17.83;6.53;;;6.30;99.90;;;;;;5078144;28;20036;-78
2022/11/26 03:41:03;;;;;;;21.65;7.47;;;5.30;99.90;;;;;;5099725;28;20051;-78
2022/11/26 03:43:29;;;;;;;26.33;8.45;;;5.30;99.90;;;;;;5082805;28;20036;-77
2022/11/26 03:45:54;;;;;;;24.02;7.32;;;5.30;99.90;;;;;;5086852;28;20069;-78
2022/11/26 03:48:20;;;;;;;23.50;7.40;;;5.30;99.90;;;;;;5095302;28;20052;-78
2022/11/26 03:50:46;;;;;;;20.92;7.78;;;5.30;99.90;;;;;;5084066;28;20028;-78
2022/11/26 03:53:12;;;;;;;25.13;7.88;;;6.40;99.90;;;;;;5096516;28;20305;-78
2022/11/26 03:55:37;;;;;;;22.30;7.60;;;5.30;99.90;;;;;;5099759;28;20043;-78
2022/11/26 03:58:03;;;;;;;22.60;7.97;;;4.80;99.90;;;;;;5076086;28;20080;-78
2022/11/26 04:00:29;;;;;;;22.63;7.75;;;5.30;99.90;;;;;;5090999;28;20481;-77
2022/11/26 04:02:55;;;;;;;24.15;7.80;;;5.30;99.90;;;;;;5090378;28;20040;-78
2022/11/26 04:05:20;;;;;;;21.73;7.30;;;5.30;99.90;;;;;;5091752;28;20085;-78
2022/11/26 04:07:46;;;;;;;23.67;7.55;;;6.60;99.90;;;;;;5065681;28;20040;-78
2022/11/26 04:10:12;;;;;;;23.48;8.40;;;6.50;99.90;;;;;;5078412;28;20047;-79
2022/11/26 04:12:38;;;;;;;22.10;7.90;;;5.30;99.90;;;;;;5082353;28;20054;-78
2022/11/26 04:15:04;;;;;;;26.45;7.80;;;5.30;99.90;;;;;;5090324;28;20038;-78
2022/11/26 04:17:29;;;;;;;22.00;7.75;;;5.30;99.90;;;;;;5079927;28;20069;-78
2022/11/26 04:19:55;;;;;;;23.73;7.70;;;5.70;99.90;;;;;;5072319;28;20048;-78
2022/11/26 04:22:21;;;;;;;22.20;7.97;;;5.20;99.90;;;;;;5088312;28;20040;-79
2022/11/26 04:24:46;;;;;;;23.58;8.52;;;5.30;99.90;;;;;;5089204;28;20047;-78
2022/11/26 04:27:12;;;;;;;22.80;8.63;;;5.80;99.90;;;;;;5091997;28;20039;-78
2022/11/26 04:29:38;;;;;;;23.65;8.45;;;5.30;99.90;;;;;;5076443;28;20033;-78
2022/11/26 04:32:04;;;;;;;24.25;8.32;;;6.20;99.90;;;;;;5094532;28;20035;-78
2022/11/26 04:34:30;;;;;;;23.58;8.05;;;5.20;99.90;;;;;;5093610;28;20047;-78
2022/11/26 04:36:56;;;;;;;23.83;8.45;;;5.10;99.90;;;;;;5088132;28;20036;-79
2022/11/26 04:39:22;;;;;;;23.90;8.60;;;5.10;99.90;;;;;;5098090;28;20031;-78
2022/11/26 04:41:48;;;;;;;24.90;8.45;;;5.80;99.90;;;;;;5075335;28;20083;-78
2022/11/26 04:44:14;;;;;;;28.33;9.38;;;5.10;99.90;;;;;;5091694;28;20035;-78
2022/11/26 04:46:39;;;;;;;23.45;9.07;;;5.10;99.90;;;;;;5073898;28;20032;-78
2022/11/26 04:49:05;;;;;;;23.15;8.88;;;5.10;99.90;;;;;;5075243;28;20050;-79
2022/11/26 04:51:31;;;;;;;25.75;8.90;;;6.30;99.90;;;;;;5063390;28;20044;-79
2022/11/26 04:53:57;;;;;;;23.85;9.30;;;5.10;99.90;;;;;;5073741;28;20181;-78
2022/11/26 04:56:23;;;;;;;20.33;9.10;;;5.90;99.90;;;;;;5092293;28;20119;-78
2022/11/26 04:58:49;;;;;;;25.65;9.63;;;5.00;99.90;;;;;;5097541;28;20496;-78
2022/11/26 05:01:15;;;;;;;27.50;9.27;;;5.30;99.90;;;;;;5096027;28;20044;-78
2022/11/26 05:03:41;;;;;;;21.27;9.27;;;5.90;99.90;;;;;;5092057;28;20453;-78
2022/11/26 05:06:07;;;;;;;21.35;10.07;;;5.00;99.90;;;;;;5091798;28;20047;-78
2022/11/26 05:08:33;;;;;;;28.35;9.68;;;5.00;99.90;;;;;;5096194;28;20032;-78
2022/11/26 05:11:00;;;;;;;20.48;10.20;;;6.30;99.90;;;;;;5089277;28;20206;-79
2022/11/26 05:13:26;;;;;;;27.48;10.05;;;5.00;99.90;;;;;;5080028;28;20032;-78
2022/11/26 05:15:51;;;;;;;22.75;9.52;;;5.50;99.90;;;;;;5095010;28;20046;-79
2022/11/26 05:18:17;;;;;;;26.23;10.27;;;4.90;99.90;;;;;;5102051;28;20535;-78
2022/11/26 05:20:43;;;;;;;30.67;10.55;;;5.10;99.90;;;;;;5095413;28;20040;-78
2022/11/26 05:23:09;;;;;;;22.83;9.75;;;4.90;99.90;;;;;;5082055;28;20040;-78
2022/11/26 05:25:35;;;;;;;24.60;10.27;;;6.40;99.90;;;;;;5068251;28;20036;-78
2022/11/26 05:28:00;;;;;;;25.83;10.23;;;4.90;99.90;;;;;;5090926;28;20036;-79
2022/11/26 05:30:26;;;;;;;26.48;10.43;;;4.90;99.90;;;;;;5095143;28;20046;-78
2022/11/26 05:32:52;;;;;;;22.23;10.10;;;5.00;99.90;;;;;;5092804;28;20197;-79
2022/11/26 05:35:18;;;;;;;26.92;9.90;;;4.90;99.90;;;;;;5093791;28;20131;-77
2022/11/26 05:37:43;;;;;;;25.17;10.35;;;4.90;99.90;;;;;;5098939;28;20032;-78
2022/11/26 05:40:10;;;;;;;21.40;9.48;;;4.90;99.90;;;;;;5102405;28;20173;-77
2022/11/26 05:42:36;;;;;;;33.13;10.60;;;4.80;99.90;;;;;;5091617;28;20072;-78
2022/11/26 05:45:02;;;;;;;26.95;10.48;;;4.80;99.90;;;;;;5080558;28;20542;-78
2022/11/26 05:47:27;;;;;;;23.52;10.52;;;4.80;99.90;;;;;;5093757;28;20032;-78
2022/11/26 05:49:55;;;;;;;25.27;9.50;;;5.20;99.90;;;;;;5101679;28;20055;-77
2022/11/26 05:52:22;;;;;;;23.80;9.73;;;4.80;99.90;;;;;;5070402;28;20374;-77
2022/11/26 05:54:48;;;;;;;24.13;10.82;;;4.90;99.90;;;;;;5089979;28;20032;-78
2022/11/26 05:57:14;;;;;;;24.17;9.65;;;4.90;99.90;;;;;;5078113;28;20063;-77
2022/11/26 05:59:39;;;;;;;24.75;10.40;;;4.90;99.90;;;;;;5096753;28;20065;-78
2022/11/26 06:02:05;;;;;;;33.83;10.93;;;4.80;99.90;;;;;;5098315;28;20048;-78
2022/11/26 06:04:31;;;;;;;27.00;10.02;;;4.80;99.90;;;;;;5077221;28;20087;-77
2022/11/26 06:06:57;;;;;;;27.83;10.27;;;4.80;99.90;;;;;;5079352;28;20039;-78
2022/11/26 06:09:22;;;;;;;25.67;9.68;;;4.80;99.90;;;;;;5080033;28;20504;-78
2022/11/26 06:11:49;;;;;;;28.08;10.00;;;4.90;99.90;;;;;;5075405;28;20044;-78
2022/11/26 06:14:15;;;;;;;28.23;9.75;;;5.50;99.90;;;;;;5092151;28;20039;-78
2022/11/26 06:16:41;;;;;;;28.15;10.32;;;5.90;99.90;;;;;;5095372;28;20063;-79
2022/11/26 06:19:07;;;;;;;30.40;9.43;;;4.90;99.90;;;;;;5094411;28;20059;-78
2022/11/26 06:21:33;;;;;;;28.77;9.82;;;4.80;99.90;;;;;;5090167;28;20092;-78
2022/11/26 06:23:58;;;;;;;26.50;10.50;;;4.80;99.90;;;;;;5096684;28;20123;-79
2022/11/26 06:26:24;;;;;;;26.85;9.65;;;5.30;99.90;;;;;;5096442;28;20078;-79
2022/11/26 06:28:50;;;;;;;24.23;10.88;;;4.80;99.90;;;;;;5091787;28;20108;-79
2022/11/26 06:31:16;;;;;;;20.70;9.40;;;4.80;99.90;;;;;;5094739;28;20496;-79
2022/11/26 06:33:42;;;;;;;23.60;9.50;;;5.90;99.90;;;;;;5045201;28;20059;-77
2022/11/26 06:36:09;;;;;;;29.88;9.98;;;4.90;99.90;;;;;;5094673;28;20023;-78
2022/11/26 06:38:34;;;;;;;28.35;10.43;;;4.90;99.90;;;;;;5098408;28;20067;-79
2022/11/26 06:41:06;;;;;;;24.88;9.73;;;4.90;99.90;;;;;;5095348;28;20101;-78
2022/11/26 06:43:32;;;;;;;29.15;10.73;;;4.90;99.90;;;;;;5096679;28;20040;-78
2022/11/26 06:46:06;;;;;;;30.30;10.40;;;6.10;99.90;;;;;;5094744;28;22033;-79
2022/11/26 06:48:33;;;;;;;32.08;10.70;;;5.00;99.90;;;;;;5090095;28;20051;-78
2022/11/26 06:51:12;;;;;;;24.48;11.50;;;4.90;99.90;;;;;;5095828;28;20039;-79
2022/11/26 06:53:38;;;;;;;28.50;10.32;;;4.90;99.90;;;;;;5091613;28;20040;-78
2022/11/26 06:56:06;;;;;;;29.00;10.80;;;4.90;99.90;;;;;;5090026;28;20443;-78
2022/11/26 06:58:32;;;;;;;30.02;11.43;;;4.90;99.90;;;;;;5089287;28;20044;-78
2022/11/26 07:00:58;;;;;;;28.50;10.48;;;4.90;99.90;;;;;;5096519;28;20133;-78
2022/11/26 07:03:25;;;;;;;27.30;10.75;;;6.00;99.90;;;;;;5082753;28;20135;-78
2022/11/26 07:05:51;;;;;;;28.70;10.90;;;6.50;99.90;;;;;;5090909;28;21096;-78
2022/11/26 07:08:16;;;;;;;23.65;10.23;;;4.90;99.90;;;;;;5085786;28;20092;-78
2022/11/26 07:10:42;;;;;;;29.45;10.88;;;4.80;99.90;;;;;;5090325;28;20043;-78
2022/11/26 07:13:08;;;;;;;25.42;11.05;;;4.90;99.90;;;;;;5095087;28;20032;-78
2022/11/26 07:15:34;;;;;;;27.00;10.55;;;4.80;99.90;;;;;;5089280;28;20051;-79
2022/11/26 07:17:59;;;;;;;25.33;9.98;;;5.10;99.90;;;;;;5091328;28;20126;-79
2022/11/26 07:20:25;;;;;;;27.98;10.75;;;4.80;99.90;;;;;;5076939;28;20035;-79
2022/11/26 07:22:52;;;;;;;29.05;11.65;;;4.80;99.90;;;;;;5098113;28;20031;-78
2022/11/26 07:25:18;;;;;;;27.05;12.07;;;6.50;99.90;;;;;;5089882;28;20047;-78
2022/11/26 07:27:44;;;;;;;29.98;11.77;;;4.80;99.90;;;;;;5089843;28;20275;-78
2022/11/26 07:30:11;;;;;;;28.60;11.40;;;4.80;99.90;;;;;;5092494;28;20280;-79
2022/11/26 07:32:37;;;;;;;27.23;11.63;;;4.90;99.90;;;;;;5081775;28;20436;-78
2022/11/26 07:35:04;;;;;;;30.13;12.75;;;6.30;99.90;;;;;;5105651;28;20036;-77
2022/11/26 07:37:31;;;;;;;28.92;11.57;;;4.90;99.90;;;;;;5109408;28;20507;-78
2022/11/26 07:39:57;;;;;;;24.63;11.73;;;4.90;99.90;;;;;;5105879;28;20578;-78
2022/11/26 07:42:23;;;;;;;32.70;12.90;;;5.60;99.90;;;;;;5092989;28;20068;-79
2022/11/26 07:44:49;;;;;;;29.17;12.00;;;5.00;99.90;;;;;;5100379;28;20101;-78
2022/11/26 07:47:15;;;;;;;30.77;12.88;;;5.00;99.90;;;;;;5101285;28;20529;-78
2022/11/26 07:49:41;;;;;;;26.10;11.63;;;5.00;99.90;;;;;;5085269;28;20549;-79
2022/11/26 07:52:07;;;;;;;28.67;13.18;;;5.10;99.90;;;;;;5107899;28;20153;-77
2022/11/26 07:54:32;;;;;;;26.77;12.57;;;5.20;99.90;;;;;;5096106;28;20054;-78
2022/11/26 07:56:58;;;;;;;28.48;13.75;;;5.20;99.90;;;;;;5086551;28;20159;-78
2022/11/26 07:59:24;;;;;;;31.80;13.68;;;6.10;99.90;;;;;;5100703;28;20035;-78
2022/11/26 08:01:50;;;;;;;33.88;12.32;;;5.30;99.90;;;;;;5080248;28;20042;-78
2022/11/26 08:04:16;;;;;;;28.02;13.93;;;5.30;99.90;;;;;;5089241;28;20031;-77
2022/11/26 08:06:41;;;;;;;27.25;12.80;;;5.30;99.90;;;;;;5092573;28;20032;-78
2022/11/26 08:09:09;;;;;;;35.28;13.32;;;5.40;99.90;;;;;;5081544;28;20042;-78
2022/11/26 08:11:34;;;;;;;33.13;12.52;;;5.40;99.90;;;;;;5075523;28;20056;-78
2022/11/26 08:14:09;;;;;;;27.40;12.13;;;5.80;99.90;;;;;;5102993;28;20055;-77
2022/11/26 08:16:34;;;;;;;29.45;12.77;;;5.50;99.90;;;;;;5086787;28;20036;-79
2022/11/26 08:19:06;;;;;;;27.63;11.50;;;6.20;99.90;;;;;;5089695;28;20051;-78
2022/11/26 08:21:32;;;;;;;29.33;13.07;;;5.50;99.90;;;;;;5094576;28;20525;-78
2022/11/26 08:23:59;;;;;;;29.15;12.18;;;6.20;99.90;;;;;;5097501;28;20039;-78
2022/11/26 08:26:25;;;;;;;28.30;12.18;;;6.30;99.90;;;;;;5067925;28;20068;-78
2022/11/26 08:28:51;;;;;;;21.80;11.50;;;5.60;99.90;;;;;;5105837;28;20488;-78
2022/11/26 08:31:17;;;;;;;26.17;11.43;;;6.80;99.90;;;;;;5099122;28;20377;-78
2022/11/26 08:33:44;;;;;;;31.40;12.73;;;5.70;99.90;;;;;;5109030;28;20154;-78
2022/11/26 08:36:10;;;;;;;28.13;12.65;;;5.80;99.90;;;;;;5101557;28;20032;-77
2022/11/26 08:38:37;;;;;;;29.42;12.45;;;5.80;99.90;;;;;;5081171;28;20059;-77
2022/11/26 08:41:06;;;;;;;25.90;11.93;;;5.90;99.90;;;;;;5100792;28;20077;-78
2022/11/26 08:43:34;;;;;;;30.90;13.20;;;5.90;99.90;;;;;;5087071;28;20046;-79
2022/11/26 08:46:00;;;;;;;28.23;12.07;;;6.00;99.90;;;;;;5090753;28;20058;-78
2022/11/26 08:48:27;;;;;;;29.13;12.10;;;6.00;99.90;;;;;;5071430;28;20059;-78
2022/11/26 08:51:01;;;;;;;32.45;14.02;;;6.10;99.90;;;;;;5075415;28;20098;-79
2022/11/26 08:53:28;;;;;;;29.45;12.00;;;6.20;99.90;;;;;;5089389;28;20119;-78
2022/11/26 08:56:06;;;;;;;27.98;11.80;;;6.30;99.90;;;;;;5088870;28;20040;-77
2022/11/26 08:58:33;;;;;;;29.33;11.88;;;6.30;99.90;;;;;;5091214;28;20051;-77
2022/11/26 09:00:59;;;;;;;30.48;12.07;;;6.40;99.90;;;;;;5078088;28;20576;-78
2022/11/26 09:03:25;;;;;;;27.50;11.82;;;7.10;99.90;;;;;;5093440;28;20505;-77
2022/11/26 09:05:50;;;;;;;27.77;10.98;;;6.50;99.90;;;;;;5102731;28;20047;-77
2022/11/26 09:08:16;;;;;;;25.70;11.10;;;6.80;99.90;;;;;;5094319;28;20440;-78
2022/11/26 09:10:51;;;;;;;25.55;11.60;;;6.50;99.90;;;;;;5075396;28;20538;-78
2022/11/26 09:13:17;;;;;;;28.23;11.07;;;6.90;99.90;;;;;;5097681;28;20073;-78
2022/11/26 09:15:42;;;;;;;23.98;10.90;;;6.60;99.90;;;;;;5108819;28;20057;-78
2022/11/26 09:18:08;;;;;;;27.15;11.18;;;6.60;99.90;;;;;;5098062;28;20024;-78
2022/11/26 09:20:34;;;;;;;29.33;10.20;;;6.70;99.90;;;;;;5098158;28;20558;-78
2022/11/26 09:22:59;;;;;;;26.73;10.20;;;7.30;99.90;;;;;;5085280;28;20046;-77
2022/11/26 09:25:25;;;;;;;28.63;11.43;;;7.40;99.90;;;;;;5108947;28;20043;-78
2022/11/26 09:27:51;;;;;;;25.27;10.40;;;8.30;99.90;;;;;;5106633;28;20443;-78
2022/11/26 09:30:18;;;;;;;25.60;11.05;;;7.00;99.90;;;;;;5092578;28;20123;-78
2022/11/26 09:32:43;;;;;;;22.52;10.25;;;6.90;99.90;;;;;;5079557;28;20470;-77
2022/11/26 09:35:09;;;;;;;27.10;10.77;;;6.90;99.90;;;;;;5074362;28;20036;-77
2022/11/26 09:37:35;;;;;;;27.33;11.07;;;7.20;99.90;;;;;;5093232;28;20043;-78
2022/11/26 09:40:01;;;;;;;25.75;10.07;;;7.00;99.90;;;;;;5090888;28;20040;-78
2022/11/26 09:43:28;;;;;;;22.65;10.35;;;7.00;99.90;;;;;;5096438;28;20039;-77
2022/11/26 09:45:58;;;;;;;25.60;9.90;;;7.10;99.90;;;;;;5020892;28;20088;-78
2022/11/26 09:48:26;;;;;;;24.35;10.30;;;7.10;99.90;;;;;;4995028;28;20060;-77
2022/11/26 09:51:00;;;;;;;23.27;9.35;;;8.80;99.90;;;;;;5054472;28;20052;-78
2022/11/26 09:53:40;;;;;;;25.50;9.98;;;6.70;99.90;;;;;;5088595;28;20100;-78
2022/11/26 09:56:17;;;;;;;31.63;11.18;;;7.10;99.90;;;;;;5102741;28;20040;-78
2022/11/26 09:59:00;;;;;;;24.60;9.50;;;7.20;99.90;;;;;;5077080;28;20040;-77
2022/11/26 10:01:27;;;;;;;19.75;9.65;;;7.30;99.90;;;;;;5092124;28;20036;-78
2022/11/26 10:03:53;;;;;;;27.08;10.07;;;7.00;99.90;;;;;;5092228;28;20396;-77
2022/11/26 10:06:48;;;;;;;25.75;9.45;;;7.50;99.90;;;;;;5077145;28;20040;-77
2022/11/26 10:09:54;;;;;;;25.83;10.05;;;7.70;99.90;;;;;;5091831;28;20036;-77
2022/11/26 10:12:40;;;;;;;25.08;9.20;;;7.50;99.90;;;;;;5098263;28;20047;-78
2022/11/26 10:15:15;;;;;;;27.00;9.57;;;7.50;99.90;;;;;;5110415;28;20609;-78
2022/11/26 10:18:08;;;;;;;20.65;9.43;;;7.60;99.90;;;;;;5097069;28;20111;-77
2022/11/26 10:20:54;;;;;;;28.15;9.45;;;7.70;99.90;;;;;;5089998;28;20512;-77
2022/11/26 10:23:30;;;;;;;21.38;9.27;;;7.70;99.90;;;;;;5102900;28;20044;-78
2022/11/26 10:26:06;;;;;;;23.40;9.02;;;7.80;99.90;;;;;;5073833;28;20048;-77
2022/11/26 10:28:47;;;;;;;23.50;9.30;;;7.80;99.90;;;;;;5090711;28;20080;-78
2022/11/26 10:31:19;;;;;;;27.42;9.85;;;7.80;99.90;;;;;;5073235;28;20335;-78
2022/11/26 10:34:00;;;;;;;23.25;8.90;;;8.40;99.90;;;;;;5090082;28;20050;-78
2022/11/26 10:36:33;;;;;;;28.60;9.60;;;7.90;99.90;;;;;;5090408;28;20069;-78
2022/11/26 10:38:59;;;;;;;28.73;9.35;;;8.40;99.90;;;;;;5089752;28;20039;-77
2022/11/26 10:41:29;;;;;;;31.75;9.20;;;7.90;99.90;;;;;;5091336;28;20044;-78
2022/11/26 10:43:54;;;;;;;27.58;9.82;;;8.00;99.90;;;;;;5074072;28;20044;-79
2022/11/26 10:46:34;;;;;;;21.33;9.48;;;8.00;99.90;;;;;;5087861;28;20050;-77
2022/11/26 10:49:22;;;;;;;21.88;9.18;;;8.00;99.90;;;;;;5091324;28;20055;-78
2022/11/26 10:51:49;;;;;;;26.63;9.68;;;8.00;99.90;;;;;;5073162;28;20051;-78
2022/11/26 10:54:36;;;;;;;26.80;10.05;;;8.20;99.90;;;;;;5105718;28;20066;-77
2022/11/26 10:57:18;;;;;;;26.98;10.18;;;8.10;99.90;;;;;;5109494;28;20115;-78
2022/11/26 10:59:52;;;;;;;28.42;9.23;;;8.10;99.90;;;;;;5085050;28;20428;-78
2022/11/26 11:02:37;;;;;;;31.15;10.02;;;8.00;99.90;;;;;;5079972;28;20083;-77
2022/11/26 11:05:06;;;;;;;27.85;10.48;;;8.20;99.90;;;;;;5071380;28;20048;-77
2022/11/26 11:07:32;;;;;;;25.27;9.70;;;8.20;99.90;;;;;;5085718;28;20040;-77
2022/11/26 11:10:04;;;;;;;28.80;10.77;;;8.20;99.90;;;;;;5096178;28;20069;-77
2022/11/26 11:12:30;;;;;;;23.67;9.75;;;8.30;99.90;;;;;;5099023;28;20400;-78
2022/11/26 11:15:17;;;;;;;26.95;10.73;;;8.30;99.90;;;;;;5076955;28;20035;-78
2022/11/26 11:17:44;;;;;;;27.42;10.25;;;8.30;99.90;;;;;;5090073;28;20039;-77
2022/11/26 11:20:15;;;;;;;29.60;11.38;;;8.30;99.90;;;;;;5091253;28;20024;-77
2022/11/26 11:22:43;;;;;;;26.90;10.73;;;8.40;99.90;;;;;;5094404;28;20054;-77
2022/11/26 11:25:24;;;;;;;26.35;10.25;;;8.30;99.90;;;;;;5089765;28;20127;-78
2022/11/26 11:27:50;;;;;;;19.75;10.50;;;8.40;99.90;;;;;;5092278;28;20044;-77
2022/11/26 11:30:25;;;;;;;24.20;11.48;;;8.40;99.90;;;;;;5093607;28;20032;-78
2022/11/26 11:32:56;;;;;;;24.85;11.77;;;8.40;99.90;;;;;;5095270;27;20040;-79
2022/11/26 11:35:29;;;;;;;25.80;11.48;;;8.40;99.90;;;;;;5081009;28;20047;-78
2022/11/26 11:37:56;;;;;;;29.60;11.35;;;8.50;99.90;;;;;;5102526;28;20132;-78
2022/11/26 11:40:26;;;;;;;33.60;12.20;;;8.50;99.90;;;;;;5101247;28;20036;-77
2022/11/26 11:43:06;;;;;;;27.60;12.27;;;8.50;99.90;;;;;;5089176;28;20039;-77
2022/11/26 11:45:40;;;;;;;30.20;12.23;;;8.50;99.90;;;;;;5093427;28;20072;-78
2022/11/26 11:48:30;;;;;;;35.22;11.95;;;8.50;99.90;;;;;;5071432;28;20558;-77
2022/11/26 11:51:52;;;;;;;33.45;12.38;;;8.90;99.90;;;;;;5087308;28;20412;-77
2022/11/26 11:54:29;;;;;;;26.77;10.95;;;8.50;99.90;;;;;;5094157;28;20420;-78
2022/11/26 11:57:29;;;;;;;27.35;11.73;;;8.50;99.90;;;;;;5078178;28;20059;-78
2022/11/26 12:00:12;;;;;;;28.85;11.50;;;8.60;99.90;;;;;;5061717;28;20054;-78
2022/11/26 12:03:02;;;;;;;26.02;10.27;;;7.60;99.90;;;;;;5091156;28;20226;-78
2022/11/26 12:05:46;;;;;;;27.38;11.30;;;8.50;99.90;;;;;;5095639;28;20047;-78
2022/11/26 12:08:25;;;;;;;27.48;10.85;;;8.50;99.90;;;;;;5097940;28;20086;-77
2022/11/26 12:11:12;;;;;;;22.95;10.65;;;8.60;99.90;;;;;;5099394;28;20059;-77
2022/11/26 12:14:12;;;;;;;31.30;11.30;;;8.60;99.90;;;;;;5087881;28;20079;-77
2022/11/26 12:16:43;;;;;;;26.60;11.93;;;8.60;99.90;;;;;;5059261;28;20570;-77
2022/11/26 12:19:24;;;;;;;32.03;12.40;;;8.60;99.90;;;;;;5089187;28;20066;-79
2022/11/26 12:21:56;;;;;;;28.33;11.85;;;8.60;99.90;;;;;;5085524;28;20071;-78
2022/11/26 12:24:30;;;;;;;25.73;11.63;;;8.60;99.90;;;;;;5073852;28;20115;-78
2022/11/26 12:27:15;;;;;;;30.83;11.65;;;8.60;99.90;;;;;;5071334;28;20035;-78
2022/11/26 12:29:45;;;;;;;31.67;12.00;;;8.60;99.90;;;;;;5090001;28;20043;-78
2022/11/26 12:32:15;;;;;;;29.92;12.18;;;8.70;99.90;;;;;;5085813;28;20041;-79
2022/11/26 12:35:02;;;;;;;29.58;11.82;;;8.60;99.90;;;;;;5087275;28;20058;-79
2022/11/26 12:37:38;;;;;;;29.77;12.32;;;8.70;99.90;;;;;;5077146;28;20111;-79
2022/11/26 12:40:16;;;;;;;24.70;12.18;;;8.70;99.90;;;;;;5098418;28;20071;-77
2022/11/26 12:43:21;;;;;;;31.05;13.45;;;8.70;99.90;;;;;;5092967;28;20500;-78
2022/11/26 12:46:05;;;;;;;26.55;12.20;;;8.70;99.90;;;;;;5094887;28;20058;-79
2022/11/26 12:49:00;;;;;;;26.95;13.27;;;8.70;99.90;;;;;;5080995;28;20035;-78
2022/11/26 12:51:56;;;;;;;29.10;13.50;;;8.70;99.90;;;;;;5093942;28;20517;-78
2022/11/26 12:54:35;;;;;;;37.33;15.18;;;8.70;99.90;;;;;;5089653;28;20066;-79
2022/11/26 12:57:13;;;;;;;31.73;14.73;;;8.60;99.90;;;;;;5090099;28;20028;-79
2022/11/26 12:59:55;;;;;;;37.92;14.98;;;8.60;99.90;;;;;;5092384;28;20570;-78
2022/11/26 13:02:34;;;;;;;32.77;15.87;;;8.60;99.90;;;;;;5093336;28;20155;-78